createdAt,value
2017-03-28T00:01:10.194Z,6.52
2017-03-28T00:02:21.183Z,6.57
2017-03-28T00:03:32.182Z,6.51
2017-03-28T00:04:43.171Z,6.58
2017-03-28T00:05:54.165Z,6.58
2017-03-28T00:07:05.154Z,6.54
2017-03-28T00:08:16.143Z,6.51
2017-03-28T00:09:27.134Z,6.57
2017-03-28T00:10:38.330Z,6.51
2017-03-28T00:11:49.369Z,6.49
2017-03-28T00:13:00.579Z,6.43
2017-03-28T00:14:11.779Z,6.47
2017-03-28T00:15:22.776Z,6.47
2017-03-28T00:16:33.766Z,6.51
2017-03-28T00:17:44.785Z,6.36
2017-03-28T00:18:55.980Z,6.26
2017-03-28T00:20:06.963Z,6.15
2017-03-28T00:21:17.954Z,6.13
2017-03-28T00:22:28.937Z,6.1
2017-03-28T00:23:39.931Z,6.07
2017-03-28T00:24:50.922Z,6.14
2017-03-28T00:26:01.910Z,6.06
2017-03-28T00:27:12.947Z,6.13
2017-03-28T00:28:24.144Z,6.09
2017-03-28T00:29:35.146Z,6.15
2017-03-28T00:30:46.132Z,6.17
2017-03-28T00:31:57.121Z,6.1
2017-03-28T00:33:08.104Z,6.17
2017-03-28T00:34:19.299Z,6.17
2017-03-28T00:35:30.499Z,6.15
2017-03-28T00:36:41.730Z,6.09
2017-03-28T00:37:52.720Z,6.15
2017-03-28T00:39:03.927Z,6.2
2017-03-28T00:40:14.912Z,6.07
2017-03-28T00:41:26.126Z,6.02
2017-03-28T00:42:37.113Z,5.92
2017-03-28T00:43:48.108Z,5.92
2017-03-28T00:44:59.305Z,5.88
2017-03-28T00:46:10.494Z,5.87
2017-03-28T00:47:21.677Z,5.84
2017-03-28T00:48:32.685Z,5.75
2017-03-28T00:49:43.698Z,5.85
2017-03-28T00:50:54.892Z,5.87
2017-03-28T00:52:05.925Z,5.88
2017-03-28T00:53:17.113Z,5.88
2017-03-28T00:54:28.102Z,5.84
2017-03-28T00:55:39.093Z,5.88
2017-03-28T00:56:50.080Z,5.87
2017-03-28T00:58:01.269Z,5.89
2017-03-28T00:59:12.257Z,5.85
2017-03-28T01:00:23.243Z,5.88
2017-03-28T01:01:34.233Z,5.81
2017-03-28T01:02:45.225Z,5.81
2017-03-28T01:03:56.627Z,5.73
2017-03-28T01:05:07.611Z,5.78
2017-03-28T01:06:18.598Z,5.72
2017-03-28T01:07:29.584Z,5.72
2017-03-28T01:08:40.578Z,5.67
2017-03-28T01:09:51.571Z,5.66
2017-03-28T01:11:02.578Z,5.64
2017-03-28T01:12:13.571Z,5.55
2017-03-28T01:13:24.839Z,5.49
2017-03-28T01:14:36.042Z,5.54
2017-03-28T01:15:47.035Z,5.52
2017-03-28T01:16:58.023Z,5.42
2017-03-28T01:18:09.225Z,5.44
2017-03-28T01:19:20.427Z,5.36
2017-03-28T01:20:31.421Z,5.33
2017-03-28T01:21:42.409Z,5.34
2017-03-28T01:22:53.590Z,5.3
2017-03-28T01:24:04.583Z,5.27
2017-03-28T01:25:15.578Z,5.3
2017-03-28T01:26:26.564Z,5.18
2017-03-28T01:27:37.544Z,5.18
2017-03-28T01:28:48.789Z,5.26
2017-03-28T01:29:59.786Z,5.2
2017-03-28T01:31:10.773Z,5.13
2017-03-28T01:32:21.752Z,5.16
2017-03-28T01:33:32.735Z,5.18
2017-03-28T01:34:43.724Z,5.1
2017-03-28T01:35:54.900Z,5.13
2017-03-28T01:37:05.914Z,5.15
2017-03-28T01:38:16.902Z,5.12
2017-03-28T01:39:27.889Z,5.23
2017-03-28T01:40:39.085Z,5.23
2017-03-28T01:41:50.082Z,5.09
2017-03-28T01:43:01.125Z,5.13
2017-03-28T01:44:12.319Z,5.05
2017-03-28T01:45:23.550Z,4.94
2017-03-28T01:46:34.545Z,5.02
2017-03-28T01:47:45.539Z,4.92
2017-03-28T01:48:56.532Z,4.97
2017-03-28T01:50:07.526Z,5
2017-03-28T01:51:18.717Z,4.98
2017-03-28T01:52:29.699Z,4.92
2017-03-28T01:53:40.687Z,4.9
2017-03-28T01:54:52.082Z,5.03
2017-03-28T01:56:03.083Z,4.97
2017-03-28T01:57:14.468Z,4.87
2017-03-28T01:58:25.684Z,4.92
2017-03-28T01:59:36.731Z,4.94
2017-03-28T02:00:47.722Z,4.91
2017-03-28T02:01:58.701Z,4.97
2017-03-28T02:03:09.687Z,4.84
2017-03-28T02:04:20.683Z,4.83
2017-03-28T02:05:31.676Z,4.83
2017-03-28T02:06:42.664Z,4.72
2017-03-28T02:07:53.656Z,4.79
2017-03-28T02:09:04.912Z,4.78
2017-03-28T02:10:16.100Z,4.78
2017-03-28T02:11:27.293Z,4.83
2017-03-28T02:12:38.300Z,4.72
2017-03-28T02:13:49.289Z,4.68
2017-03-28T02:15:00.281Z,4.75
2017-03-28T02:16:11.269Z,4.69
2017-03-28T02:17:22.451Z,4.69
2017-03-28T02:18:33.445Z,4.65
2017-03-28T02:19:44.893Z,4.58
2017-03-28T02:20:55.876Z,4.6
2017-03-28T02:22:06.877Z,4.53
2017-03-28T02:23:17.857Z,4.57
2017-03-28T02:24:29.241Z,4.56
2017-03-28T02:25:40.215Z,4.58
2017-03-28T02:26:51.198Z,4.6
2017-03-28T02:28:02.189Z,4.56
2017-03-28T02:29:13.179Z,4.6
2017-03-28T02:30:24.170Z,4.57
2017-03-28T02:31:35.151Z,4.6
2017-03-28T02:32:46.342Z,4.65
2017-03-28T02:33:57.321Z,4.56
2017-03-28T02:35:08.308Z,4.57
2017-03-28T02:36:19.295Z,4.5
2017-03-28T02:37:30.290Z,4.46
2017-03-28T02:38:41.480Z,4.57
2017-03-28T02:39:52.462Z,4.46
2017-03-28T02:41:03.449Z,4.47
2017-03-28T02:42:14.635Z,4.42
2017-03-28T02:43:25.829Z,4.47
2017-03-28T02:44:36.818Z,4.42
2017-03-28T02:45:47.832Z,4.4
2017-03-28T02:46:58.867Z,4.35
2017-03-28T02:48:09.844Z,4.33
2017-03-28T02:49:20.843Z,4.22
2017-03-28T02:50:31.829Z,4.21
2017-03-28T02:51:42.814Z,4.22
2017-03-28T02:52:53.803Z,4.2
2017-03-28T02:54:04.995Z,4.08
2017-03-28T02:55:16.191Z,4.12
2017-03-28T02:56:27.225Z,4.12
2017-03-28T02:57:38.248Z,4.15
2017-03-28T02:58:49.243Z,4.15
2017-03-28T03:00:00.246Z,4.2
2017-03-28T03:01:11.431Z,4.12
2017-03-28T03:02:22.626Z,4.12
2017-03-28T03:03:33.618Z,4.15
2017-03-28T03:04:44.611Z,4.17
2017-03-28T03:05:55.599Z,4.21
2017-03-28T03:07:06.839Z,4.17
2017-03-28T03:08:17.817Z,4.12
2017-03-28T03:09:28.822Z,4.14
2017-03-28T03:10:40.017Z,4.11
2017-03-28T03:11:51.200Z,4.08
2017-03-28T03:13:02.201Z,4.03
2017-03-28T03:14:13.208Z,4.03
2017-03-28T03:15:24.210Z,4.03
2017-03-28T03:16:35.197Z,3.93
2017-03-28T03:17:46.195Z,3.94
2017-03-28T03:18:57.187Z,3.86
2017-03-28T03:20:08.174Z,3.97
2017-03-28T03:21:19.167Z,3.84
2017-03-28T03:22:30.152Z,3.92
2017-03-28T03:23:41.141Z,3.94
2017-03-28T03:24:52.155Z,3.9
2017-03-28T03:26:03.143Z,3.94
2017-03-28T03:27:14.159Z,3.94
2017-03-28T03:28:25.197Z,3.74
2017-03-28T03:29:36.188Z,3.74
2017-03-28T03:30:47.579Z,3.66
2017-03-28T03:31:58.564Z,3.69
2017-03-28T03:33:09.548Z,3.67
2017-03-28T03:34:20.527Z,3.71
2017-03-28T03:35:31.515Z,3.72
2017-03-28T03:36:42.499Z,3.85
2017-03-28T03:37:53.494Z,3.71
2017-03-28T03:39:04.478Z,3.69
2017-03-28T03:40:15.462Z,3.74
2017-03-28T03:41:26.441Z,3.69
2017-03-28T03:42:37.431Z,3.64
2017-03-28T03:43:48.479Z,3.58
2017-03-28T03:44:59.471Z,3.6
2017-03-28T03:46:10.468Z,3.56
2017-03-28T03:47:21.466Z,3.64
2017-03-28T03:48:32.488Z,3.57
2017-03-28T03:49:43.482Z,3.57
2017-03-28T03:50:54.467Z,3.57
2017-03-28T03:52:05.453Z,3.53
2017-03-28T03:53:16.439Z,3.67
2017-03-28T03:54:27.697Z,3.58
2017-03-28T03:55:38.688Z,3.54
2017-03-28T03:56:49.878Z,3.56
2017-03-28T03:58:00.866Z,3.53
2017-03-28T03:59:12.052Z,3.56
2017-03-28T04:00:23.446Z,3.49
2017-03-28T04:01:34.426Z,3.54
2017-03-28T04:02:45.419Z,3.58
2017-03-28T04:03:56.405Z,3.56
2017-03-28T04:05:07.601Z,3.53
2017-03-28T04:06:18.582Z,3.58
2017-03-28T04:07:29.569Z,3.58
2017-03-28T04:08:40.765Z,3.58
2017-03-28T04:09:51.798Z,3.64
2017-03-28T04:11:02.793Z,3.57
2017-03-28T04:12:13.784Z,3.61
2017-03-28T04:13:24.771Z,3.57
2017-03-28T04:14:35.756Z,3.53
2017-03-28T04:15:46.738Z,3.53
2017-03-28T04:16:57.939Z,3.43
2017-03-28T04:18:08.935Z,3.39
2017-03-28T04:19:19.936Z,3.45
2017-03-28T04:20:30.929Z,3.39
2017-03-28T04:21:41.915Z,3.45
2017-03-28T04:22:52.902Z,3.39
2017-03-28T04:24:04.098Z,3.39
2017-03-28T04:25:15.135Z,3.35
2017-03-28T04:26:26.120Z,3.35
2017-03-28T04:27:37.125Z,3.53
2017-03-28T04:28:48.110Z,3.39
2017-03-28T04:29:59.101Z,3.49
2017-03-28T04:31:10.082Z,3.42
2017-03-28T04:32:21.067Z,3.49
2017-03-28T04:33:32.064Z,3.42
2017-03-28T04:34:43.048Z,3.4
2017-03-28T04:35:54.035Z,3.35
2017-03-28T04:37:05.022Z,3.26
2017-03-28T04:38:16.198Z,3.09
2017-03-28T04:39:27.187Z,3.14
2017-03-28T04:40:38.179Z,3.09
2017-03-28T04:41:49.563Z,3.19
2017-03-28T04:43:00.959Z,3.14
2017-03-28T04:44:11.947Z,3.14
2017-03-28T04:45:22.931Z,3.16
2017-03-28T04:46:33.919Z,3.16
2017-03-28T04:47:45.107Z,3.13
2017-03-28T04:48:56.096Z,3.19
2017-03-28T04:50:07.288Z,3.24
2017-03-28T04:51:18.539Z,3.14
2017-03-28T04:52:29.525Z,3.05
2017-03-28T04:53:40.707Z,3.09
2017-03-28T04:54:51.723Z,3.02
2017-03-28T04:56:02.712Z,3.01
2017-03-28T04:57:13.698Z,2.91
2017-03-28T04:58:24.680Z,3.01
2017-03-28T04:59:35.679Z,3.05
2017-03-28T05:00:46.892Z,3.01
2017-03-28T05:01:58.073Z,2.99
2017-03-28T05:03:09.059Z,3.02
2017-03-28T05:04:20.042Z,2.84
2017-03-28T05:05:31.231Z,2.87
2017-03-28T05:06:42.425Z,3.02
2017-03-28T05:07:53.470Z,2.95
2017-03-28T05:09:04.657Z,3.02
2017-03-28T05:10:15.855Z,2.91
2017-03-28T05:11:26.836Z,2.76
2017-03-28T05:12:37.823Z,2.91
2017-03-28T05:13:48.822Z,2.91
2017-03-28T05:14:59.819Z,2.9
2017-03-28T05:16:10.800Z,2.87
2017-03-28T05:17:22.013Z,2.84
2017-03-28T05:18:33.015Z,2.87
2017-03-28T05:19:44.015Z,2.88
2017-03-28T05:20:55.000Z,2.98
2017-03-28T05:22:05.985Z,2.9
2017-03-28T05:23:17.021Z,3.01
2017-03-28T05:24:28.410Z,3.02
2017-03-28T05:25:39.393Z,3.01
2017-03-28T05:26:50.385Z,2.93
2017-03-28T05:28:01.376Z,3.01
2017-03-28T05:29:12.374Z,2.99
2017-03-28T05:30:23.571Z,2.99
2017-03-28T05:31:34.552Z,3.02
2017-03-28T05:32:46.010Z,3.01
2017-03-28T05:33:56.996Z,2.9
2017-03-28T05:35:07.998Z,2.91
2017-03-28T05:36:19.178Z,3.03
2017-03-28T05:37:30.163Z,3.13
2017-03-28T05:38:41.153Z,3.23
2017-03-28T05:39:52.147Z,3.32
2017-03-28T05:41:03.140Z,3.58
2017-03-28T05:42:14.341Z,3.69
2017-03-28T05:43:25.785Z,3.85
2017-03-28T05:44:36.781Z,4.14
2017-03-28T05:45:47.773Z,4.5
2017-03-28T05:46:59.167Z,4.68
2017-03-28T05:48:10.155Z,4.91
2017-03-28T05:49:21.144Z,5.08
2017-03-28T05:50:32.137Z,5.3
2017-03-28T05:51:43.335Z,5.31
2017-03-28T05:52:54.314Z,5.36
2017-03-28T05:54:05.504Z,5.3
2017-03-28T05:55:16.544Z,5.33
2017-03-28T05:56:27.540Z,5.36
2017-03-28T05:57:38.521Z,5.6
2017-03-28T05:58:49.505Z,5.55
2017-03-28T06:00:00.495Z,5.69
2017-03-28T06:01:11.480Z,5.69
2017-03-28T06:02:22.502Z,5.78
2017-03-28T06:03:33.487Z,5.87
2017-03-28T06:04:44.734Z,5.85
2017-03-28T06:05:55.723Z,6.02
2017-03-28T06:07:06.917Z,6.18
2017-03-28T06:08:17.903Z,6.14
2017-03-28T06:09:28.899Z,6.26
2017-03-28T06:10:39.889Z,6.34
2017-03-28T06:11:51.078Z,6.42
2017-03-28T06:13:02.078Z,6.49
2017-03-28T06:14:13.070Z,6.62
2017-03-28T06:15:24.063Z,6.61
2017-03-28T06:16:35.056Z,6.88
2017-03-28T06:17:46.244Z,6.98
2017-03-28T06:18:57.264Z,6.97
2017-03-28T06:20:08.301Z,7.01
2017-03-28T06:21:19.290Z,7.16
2017-03-28T06:22:30.486Z,7.29
2017-03-28T06:23:41.675Z,7.41
2017-03-28T06:24:52.681Z,7.55
2017-03-28T06:26:03.874Z,7.59
2017-03-28T06:27:14.870Z,7.54
2017-03-28T06:28:26.265Z,7.64
2017-03-28T06:29:37.261Z,7.82
2017-03-28T06:30:48.297Z,7.92
2017-03-28T06:31:59.490Z,7.96
2017-03-28T06:33:10.481Z,8.13
2017-03-28T06:34:21.471Z,8.22
2017-03-28T06:35:32.468Z,8.22
2017-03-28T06:36:43.655Z,8.42
2017-03-28T06:37:54.636Z,8.43
2017-03-28T06:39:05.632Z,8.52
2017-03-28T06:40:16.622Z,8.54
2017-03-28T06:41:27.865Z,8.6
2017-03-28T06:42:39.067Z,8.65
2017-03-28T06:43:50.066Z,8.8
2017-03-28T06:45:01.267Z,8.98
2017-03-28T06:46:12.254Z,9.12
2017-03-28T06:47:23.250Z,9.34
2017-03-28T06:48:34.451Z,9.48
2017-03-28T06:49:45.636Z,10.07
2017-03-28T06:50:56.837Z,10.44
2017-03-28T06:52:08.287Z,10.92
2017-03-28T06:53:19.277Z,11.38
2017-03-28T06:54:30.279Z,11.94
2017-03-28T06:55:41.279Z,12.55
2017-03-28T06:56:52.284Z,13.1
2017-03-28T06:58:03.481Z,13.55
2017-03-28T06:59:14.474Z,14.02
2017-03-28T07:00:25.471Z,14.36
2017-03-28T07:01:36.473Z,14.75
2017-03-28T07:02:47.734Z,14.95
2017-03-28T07:03:58.747Z,15.23
2017-03-28T07:05:09.763Z,15.45
2017-03-28T07:06:20.763Z,15.73
2017-03-28T07:07:31.757Z,15.96
2017-03-28T07:08:42.769Z,16.25
2017-03-28T07:09:53.776Z,16.45
2017-03-28T07:11:04.775Z,16.72
2017-03-28T07:12:15.780Z,16.91
2017-03-28T07:13:26.995Z,16.9
2017-03-28T07:14:37.996Z,17.25
2017-03-28T07:15:48.999Z,17.55
2017-03-28T07:17:00.206Z,17.77
2017-03-28T07:18:11.222Z,17.76
2017-03-28T07:19:22.229Z,17.86
2017-03-28T07:20:33.240Z,18.14
2017-03-28T07:21:44.252Z,18.24
2017-03-28T07:22:55.264Z,18.11
2017-03-28T07:24:06.480Z,17.8
2017-03-28T07:25:17.731Z,17.77
2017-03-28T07:26:28.735Z,17.94
2017-03-28T07:27:39.742Z,18.1
2017-03-28T07:28:50.758Z,18.51
2017-03-28T07:30:01.779Z,18.87
2017-03-28T07:31:12.785Z,19.12
2017-03-28T07:32:24.027Z,19.42
2017-03-28T07:33:35.059Z,19.55
2017-03-28T07:34:46.321Z,19.46
2017-03-28T07:35:57.336Z,19.72
2017-03-28T07:37:08.337Z,19.65
2017-03-28T07:38:19.353Z,19.45
2017-03-28T07:39:30.373Z,19.4
2017-03-28T07:40:41.382Z,19.61
2017-03-28T07:41:52.589Z,19.78
2017-03-28T07:43:03.802Z,19.82
2017-03-28T07:44:15.009Z,19.87
2017-03-28T07:45:26.024Z,19.97
2017-03-28T07:46:37.237Z,20.08
2017-03-28T07:47:48.242Z,20.32
2017-03-28T07:48:59.239Z,20.35
2017-03-28T07:50:10.493Z,20.49
2017-03-28T07:51:21.712Z,20.68
2017-03-28T07:52:32.716Z,20.93
2017-03-28T07:53:43.723Z,21.22
2017-03-28T07:54:54.732Z,21.43
2017-03-28T07:56:05.749Z,21.62
2017-03-28T07:57:16.758Z,21.74
2017-03-28T07:58:27.775Z,21.74
2017-03-28T07:59:38.798Z,21.85
2017-03-28T08:00:50.012Z,21.99
2017-03-28T08:02:01.441Z,22.23
2017-03-28T08:03:12.462Z,22.6
2017-03-28T08:04:23.480Z,22.71
2017-03-28T08:05:34.518Z,22.92
2017-03-28T08:06:45.593Z,23.1
2017-03-28T08:07:56.609Z,23.09
2017-03-28T08:09:07.617Z,22.91
2017-03-28T08:10:18.631Z,22.91
2017-03-28T08:11:29.633Z,22.71
2017-03-28T08:12:40.651Z,22.85
2017-03-28T08:13:51.670Z,22.57
2017-03-28T08:15:02.689Z,22
2017-03-28T08:16:13.707Z,21.68
2017-03-28T08:17:24.763Z,21.45
2017-03-28T08:18:35.786Z,21.36
2017-03-28T08:19:46.798Z,21.61
2017-03-28T08:20:57.806Z,21.78
2017-03-28T08:22:08.818Z,21.97
2017-03-28T08:23:19.830Z,22.05
2017-03-28T08:24:30.847Z,22.11
2017-03-28T08:25:42.052Z,22.14
2017-03-28T08:26:53.066Z,22.14
2017-03-28T08:28:04.363Z,22.24
2017-03-28T08:29:15.373Z,22.18
2017-03-28T08:30:26.591Z,22.05
2017-03-28T08:31:37.810Z,22.11
2017-03-28T08:32:48.827Z,21.99
2017-03-28T08:34:00.047Z,21.86
2017-03-28T08:35:11.065Z,21.86
2017-03-28T08:36:22.081Z,21.83
2017-03-28T08:37:33.104Z,21.86
2017-03-28T08:38:44.112Z,21.77
2017-03-28T08:39:55.125Z,21.53
2017-03-28T08:41:06.148Z,21.49
2017-03-28T08:42:17.162Z,21.51
2017-03-28T08:43:28.179Z,21.61
2017-03-28T08:44:39.194Z,21.67
2017-03-28T08:45:50.216Z,21.67
2017-03-28T08:47:01.233Z,21.46
2017-03-28T08:48:12.251Z,21.46
2017-03-28T08:49:23.274Z,21.56
2017-03-28T08:50:34.338Z,21.58
2017-03-28T08:51:45.343Z,21.76
2017-03-28T08:52:56.359Z,21.93
2017-03-28T08:54:07.371Z,22.07
2017-03-28T08:55:18.383Z,22.29
2017-03-28T08:56:29.392Z,22.44
2017-03-28T08:57:40.604Z,22.41
2017-03-28T08:58:51.831Z,22.33
2017-03-28T09:00:03.095Z,22.46
2017-03-28T09:01:14.113Z,22.61
2017-03-28T09:02:25.140Z,22.57
2017-03-28T09:03:36.387Z,22.52
2017-03-28T09:04:47.414Z,22.61
2017-03-28T09:05:58.422Z,22.66
2017-03-28T09:07:09.441Z,22.6
2017-03-28T09:08:20.470Z,22.57
2017-03-28T09:09:31.488Z,22.63
2017-03-28T09:10:42.553Z,22.7
2017-03-28T09:11:53.765Z,22.85
2017-03-28T09:13:04.775Z,22.7
2017-03-28T09:14:15.793Z,22.51
2017-03-28T09:15:27.008Z,22.54
2017-03-28T09:16:38.027Z,22.64
2017-03-28T09:17:49.245Z,22.88
2017-03-28T09:19:00.277Z,23.14
2017-03-28T09:20:11.302Z,23.24
2017-03-28T09:21:22.371Z,23.25
2017-03-28T09:22:33.585Z,23.45
2017-03-28T09:23:44.604Z,23.21
2017-03-28T09:24:55.622Z,23
2017-03-28T09:26:06.644Z,22.96
2017-03-28T09:27:17.657Z,22.94
2017-03-28T09:28:28.675Z,22.86
2017-03-28T09:29:39.693Z,22.67
2017-03-28T09:30:51.113Z,22.67
2017-03-28T09:32:02.138Z,22.7
2017-03-28T09:33:13.159Z,22.73
2017-03-28T09:34:24.178Z,22.64
2017-03-28T09:35:35.203Z,22.73
2017-03-28T09:36:46.214Z,22.84
2017-03-28T09:37:57.230Z,22.79
2017-03-28T09:39:08.503Z,22.94
2017-03-28T09:40:19.549Z,23.21
2017-03-28T09:41:30.564Z,23.32
2017-03-28T09:42:41.587Z,23.47
2017-03-28T09:43:52.603Z,23.7
2017-03-28T09:45:03.613Z,23.87
2017-03-28T09:46:14.625Z,24.08
2017-03-28T09:47:25.633Z,24.34
2017-03-28T09:48:36.704Z,24.51
2017-03-28T09:49:47.713Z,24.69
2017-03-28T09:50:58.928Z,24.77
2017-03-28T09:52:09.944Z,25.04
2017-03-28T09:53:21.163Z,25.07
2017-03-28T09:54:32.184Z,25.07
2017-03-28T09:55:43.203Z,24.94
2017-03-28T09:56:54.219Z,24.87
2017-03-28T09:58:05.225Z,24.71
2017-03-28T09:59:16.298Z,24.71
2017-03-28T10:00:27.320Z,24.7
2017-03-28T10:01:38.342Z,24.83
2017-03-28T10:02:49.360Z,24.77
2017-03-28T10:04:00.377Z,24.74
2017-03-28T10:05:11.402Z,24.51
2017-03-28T10:06:22.418Z,24.36
2017-03-28T10:07:33.628Z,24.21
2017-03-28T10:08:44.654Z,24.11
2017-03-28T10:09:55.877Z,24.22
2017-03-28T10:11:06.886Z,24.19
2017-03-28T10:12:17.904Z,24.37
2017-03-28T10:13:28.913Z,24.54
2017-03-28T10:14:39.924Z,24.56
2017-03-28T10:15:51.137Z,24.63
2017-03-28T10:17:02.364Z,24.77
2017-03-28T10:18:13.578Z,24.77
2017-03-28T10:19:24.596Z,24.8
2017-03-28T10:20:35.615Z,24.87
2017-03-28T10:21:46.836Z,24.8
2017-03-28T10:22:57.853Z,24.7
2017-03-28T10:24:09.066Z,24.85
2017-03-28T10:25:20.131Z,24.74
2017-03-28T10:26:31.758Z,24.78
2017-03-28T10:27:42.772Z,24.69
2017-03-28T10:28:53.997Z,24.34
2017-03-28T10:30:05.009Z,24.09
2017-03-28T10:31:16.028Z,24.04
2017-03-28T10:32:27.043Z,24.07
2017-03-28T10:33:38.043Z,23.99
2017-03-28T10:34:49.260Z,24.11
2017-03-28T10:36:00.523Z,24
2017-03-28T10:37:11.734Z,23.87
2017-03-28T10:38:22.949Z,23.84
2017-03-28T10:39:33.962Z,23.85
2017-03-28T10:40:44.982Z,23.85
2017-03-28T10:41:56.001Z,23.82
2017-03-28T10:43:07.017Z,24
2017-03-28T10:44:18.038Z,24.12
2017-03-28T10:45:29.061Z,24.34
2017-03-28T10:46:40.069Z,24.54
2017-03-28T10:47:51.279Z,24.37
2017-03-28T10:49:02.298Z,24.18
2017-03-28T10:50:13.334Z,24.03
2017-03-28T10:51:24.359Z,24.02
2017-03-28T10:52:35.396Z,23.82
2017-03-28T10:53:46.414Z,23.57
2017-03-28T10:54:57.634Z,23.52
2017-03-28T10:56:08.642Z,23.37
2017-03-28T10:57:19.653Z,23.41
2017-03-28T10:58:30.667Z,23.21
2017-03-28T10:59:41.687Z,23.15
2017-03-28T11:00:52.699Z,23.16
2017-03-28T11:02:03.755Z,23.32
2017-03-28T11:03:14.982Z,23.62
2017-03-28T11:04:26.007Z,23.82
2017-03-28T11:05:37.062Z,23.79
2017-03-28T11:06:48.072Z,24.08
2017-03-28T11:07:59.101Z,24.37
2017-03-28T11:09:10.121Z,24.48
2017-03-28T11:10:21.332Z,24.46
2017-03-28T11:11:32.345Z,24.56
2017-03-28T11:12:43.612Z,24.71
2017-03-28T11:13:54.634Z,24.64
2017-03-28T11:15:05.646Z,24.71
2017-03-28T11:16:16.856Z,24.7
2017-03-28T11:17:27.874Z,24.74
2017-03-28T11:18:38.894Z,24.92
2017-03-28T11:19:49.914Z,24.9
2017-03-28T11:21:00.933Z,24.93
2017-03-28T11:22:12.151Z,24.97
2017-03-28T11:23:23.221Z,25.01
2017-03-28T11:24:34.439Z,24.96
2017-03-28T11:25:45.448Z,24.74
2017-03-28T11:26:56.461Z,24.58
2017-03-28T11:28:07.485Z,24.42
2017-03-28T11:29:18.502Z,23.97
2017-03-28T11:30:29.526Z,24.04
2017-03-28T11:31:40.544Z,24.15
2017-03-28T11:32:51.558Z,24.36
2017-03-28T11:34:02.769Z,24.48
2017-03-28T11:35:13.985Z,24.61
2017-03-28T11:36:24.997Z,24.7
2017-03-28T11:37:36.220Z,24.71
2017-03-28T11:38:47.228Z,25.07
2017-03-28T11:39:58.494Z,25.23
2017-03-28T11:41:09.713Z,25.33
2017-03-28T11:42:20.741Z,25.41
2017-03-28T11:43:31.769Z,25.2
2017-03-28T11:44:42.988Z,25.24
2017-03-28T11:45:54.007Z,25.45
2017-03-28T11:47:05.221Z,25.49
2017-03-28T11:48:16.239Z,25.6
2017-03-28T11:49:27.460Z,25.23
2017-03-28T11:50:38.476Z,25.02
2017-03-28T11:51:49.492Z,24.85
2017-03-28T11:53:00.513Z,24.87
2017-03-28T11:54:11.583Z,24.87
2017-03-28T11:55:22.802Z,24.86
2017-03-28T11:56:34.215Z,25.08
2017-03-28T11:57:45.444Z,25.11
2017-03-28T11:58:56.465Z,25.33
2017-03-28T12:00:07.679Z,25.62
2017-03-28T12:01:18.693Z,25.7
2017-03-28T12:02:29.708Z,25.91
2017-03-28T12:03:40.730Z,25.82
2017-03-28T12:04:51.744Z,25.84
2017-03-28T12:06:02.763Z,25.84
2017-03-28T12:07:13.977Z,25.62
2017-03-28T12:08:24.982Z,25.57
2017-03-28T12:09:35.984Z,25.52
2017-03-28T12:10:46.991Z,25.6
2017-03-28T12:11:58.004Z,25.49
2017-03-28T12:13:09.215Z,25.49
2017-03-28T12:14:20.226Z,25.56
2017-03-28T12:15:31.447Z,25.62
2017-03-28T12:16:42.459Z,25.34
2017-03-28T12:17:53.662Z,25.41
2017-03-28T12:19:04.869Z,25.44
2017-03-28T12:20:15.873Z,25.63
2017-03-28T12:21:27.089Z,25.62
2017-03-28T12:22:38.098Z,25.75
2017-03-28T12:23:49.311Z,25.85
2017-03-28T12:25:00.344Z,25.94
2017-03-28T12:26:11.352Z,25.89
2017-03-28T12:27:22.558Z,25.81
2017-03-28T12:28:33.574Z,25.76
2017-03-28T12:29:44.779Z,25.74
2017-03-28T12:30:56.042Z,25.82
2017-03-28T12:32:07.250Z,25.91
2017-03-28T12:33:18.460Z,25.89
2017-03-28T12:34:29.675Z,26.01
2017-03-28T12:35:40.687Z,25.99
2017-03-28T12:36:51.700Z,25.99
2017-03-28T12:38:02.711Z,26.07
2017-03-28T12:39:13.915Z,26.26
2017-03-28T12:40:24.923Z,26.19
2017-03-28T12:41:35.935Z,25.96
2017-03-28T12:42:46.958Z,25.89
2017-03-28T12:43:57.970Z,25.44
2017-03-28T12:45:09.184Z,25.15
2017-03-28T12:46:20.191Z,24.93
2017-03-28T12:47:31.200Z,24.92
2017-03-28T12:48:42.205Z,24.93
2017-03-28T12:49:53.208Z,24.7
2017-03-28T12:51:04.211Z,24.49
2017-03-28T12:52:15.222Z,24.36
2017-03-28T12:53:26.232Z,24.58
2017-03-28T12:54:37.238Z,24.82
2017-03-28T12:55:48.265Z,24.87
2017-03-28T12:56:59.272Z,24.89
2017-03-28T12:58:10.275Z,25
2017-03-28T12:59:21.278Z,24.89
2017-03-28T13:00:32.738Z,25.01
2017-03-28T13:01:43.745Z,24.97
2017-03-28T13:02:54.760Z,24.9
2017-03-28T13:04:05.767Z,24.93
2017-03-28T13:05:16.785Z,24.89
2017-03-28T13:06:27.789Z,24.74
2017-03-28T13:07:38.821Z,24.59
2017-03-28T13:08:49.828Z,24.34
2017-03-28T13:10:00.836Z,23.87
2017-03-28T13:11:11.901Z,23.75
2017-03-28T13:12:23.106Z,23.85
2017-03-28T13:13:34.116Z,23.84
2017-03-28T13:14:45.112Z,23.74
2017-03-28T13:15:56.118Z,23.74
2017-03-28T13:17:07.119Z,23.64
2017-03-28T13:18:18.317Z,23.67
2017-03-28T13:19:29.328Z,23.75
2017-03-28T13:20:40.534Z,23.59
2017-03-28T13:21:51.784Z,23.63
2017-03-28T13:23:02.784Z,23.7
2017-03-28T13:24:13.984Z,23.62
2017-03-28T13:25:24.983Z,23.55
2017-03-28T13:26:36.182Z,23.52
2017-03-28T13:27:47.223Z,23.45
2017-03-28T13:28:58.235Z,23.44
2017-03-28T13:30:09.251Z,23.44
2017-03-28T13:31:20.249Z,23.35
2017-03-28T13:32:31.302Z,23.4
2017-03-28T13:33:42.303Z,23.37
2017-03-28T13:34:53.304Z,23.25
2017-03-28T13:36:04.316Z,23.18
2017-03-28T13:37:15.316Z,22.89
2017-03-28T13:38:26.315Z,22.55
2017-03-28T13:39:37.315Z,22.42
2017-03-28T13:40:48.318Z,22.29
2017-03-28T13:41:59.320Z,22.12
2017-03-28T13:43:10.323Z,22.12
2017-03-28T13:44:21.336Z,22
2017-03-28T13:45:32.337Z,22
2017-03-28T13:46:43.350Z,22.15
2017-03-28T13:47:54.350Z,22.05
2017-03-28T13:49:05.609Z,22.14
2017-03-28T13:50:16.607Z,22.24
2017-03-28T13:51:27.818Z,22.45
2017-03-28T13:52:38.824Z,22.46
2017-03-28T13:53:49.828Z,22.6
2017-03-28T13:55:00.829Z,22.73
2017-03-28T13:56:11.834Z,22.75
2017-03-28T13:57:23.063Z,22.69
2017-03-28T13:58:34.124Z,22.75
2017-03-28T13:59:45.122Z,22.78
2017-03-28T14:00:56.126Z,22.82
2017-03-28T14:02:07.325Z,22.85
2017-03-28T14:03:18.338Z,22.78
2017-03-28T14:04:29.343Z,22.84
2017-03-28T14:05:40.346Z,22.73
2017-03-28T14:06:51.752Z,22.79
2017-03-28T14:08:02.758Z,22.73
2017-03-28T14:09:14.013Z,22.64
2017-03-28T14:10:25.016Z,22.64
2017-03-28T14:11:36.020Z,22.69
2017-03-28T14:12:47.029Z,22.73
2017-03-28T14:13:58.037Z,22.71
2017-03-28T14:15:09.045Z,22.76
2017-03-28T14:16:20.046Z,22.71
2017-03-28T14:17:31.045Z,22.66
2017-03-28T14:18:42.049Z,22.76
2017-03-28T14:19:53.255Z,22.75
2017-03-28T14:21:04.263Z,22.79
2017-03-28T14:22:15.271Z,22.57
2017-03-28T14:23:26.273Z,22.61
2017-03-28T14:24:37.274Z,22.67
2017-03-28T14:25:48.275Z,22.41
2017-03-28T14:26:59.276Z,22.11
2017-03-28T14:28:10.285Z,22.08
2017-03-28T14:29:21.285Z,22.16
2017-03-28T14:30:32.334Z,22.24
2017-03-28T14:31:43.329Z,22.23
2017-03-28T14:32:54.332Z,22.09
2017-03-28T14:34:05.333Z,21.92
2017-03-28T14:35:16.332Z,21.97
2017-03-28T14:36:27.323Z,22
2017-03-28T14:37:38.322Z,21.97
2017-03-28T14:38:49.329Z,21.99
2017-03-28T14:40:00.331Z,22.12
2017-03-28T14:41:11.784Z,22.02
2017-03-28T14:42:22.974Z,22.02
2017-03-28T14:43:34.173Z,22.07
2017-03-28T14:44:45.381Z,21.99
2017-03-28T14:45:56.386Z,22.04
2017-03-28T14:47:07.389Z,22.04
2017-03-28T14:48:18.582Z,22
2017-03-28T14:49:29.604Z,22.05
2017-03-28T14:50:40.594Z,22
2017-03-28T14:51:51.643Z,22.15
2017-03-28T14:53:02.651Z,22.11
2017-03-28T14:54:13.667Z,22.2
2017-03-28T14:55:24.670Z,22.22
2017-03-28T14:56:35.675Z,22.12
2017-03-28T14:57:46.676Z,22.26
2017-03-28T14:58:57.680Z,22.14
2017-03-28T15:00:08.890Z,22.11
2017-03-28T15:01:19.915Z,21.94
2017-03-28T15:02:31.118Z,21.94
2017-03-28T15:03:42.112Z,21.9
2017-03-28T15:04:53.322Z,21.86
2017-03-28T15:06:04.334Z,21.93
2017-03-28T15:07:15.332Z,21.92
2017-03-28T15:08:26.579Z,21.77
2017-03-28T15:09:37.595Z,21.78
2017-03-28T15:10:48.597Z,21.78
2017-03-28T15:11:59.591Z,21.86
2017-03-28T15:13:10.601Z,21.85
2017-03-28T15:14:21.602Z,21.77
2017-03-28T15:15:32.601Z,21.78
2017-03-28T15:16:43.610Z,21.71
2017-03-28T15:17:54.669Z,21.74
2017-03-28T15:19:05.681Z,21.73
2017-03-28T15:20:16.687Z,21.74
2017-03-28T15:21:27.698Z,21.77
2017-03-28T15:22:38.699Z,21.77
2017-03-28T15:23:50.106Z,21.68
2017-03-28T15:25:01.113Z,21.76
2017-03-28T15:26:12.114Z,21.76
2017-03-28T15:27:23.313Z,21.67
2017-03-28T15:28:34.370Z,21.66
2017-03-28T15:29:45.370Z,21.7
2017-03-28T15:30:56.379Z,21.7
2017-03-28T15:32:07.379Z,21.67